Time;durP1;ratioP1;P1;durP2;ratioP2;P2;SDS_P1;SDS_P2;PMS_P1;PMS_P2;Temp;Humidity;BMP_temperature;BMP_pressure;BME280_temperature;BME280_humidity;BME280_pressure;Samples;Min_cycle;Max_cycle;Signal;HPM_P1;HPM_P2
2021/01/29 00:02:12;;;;;;;0.45;0.10;;;13.70;84.70;;;;;;5062073;28;20049;-86
2021/01/29 00:04:39;;;;;;;0.00;0.00;;;13.70;84.70;;;;;;5063750;28;20025;-87
2021/01/29 00:07:07;;;;;;;0.00;0.00;;;13.70;84.70;;;;;;5040348;28;20048;-85
2021/01/29 00:09:33;;;;;;;0.00;0.00;;;13.70;84.70;;;;;;5052498;28;20060;-86
2021/01/29 00:11:59;;;;;;;0.00;0.00;;;13.70;84.80;;;;;;5032590;28;20037;-86
2021/01/29 00:14:25;;;;;;;0.00;0.00;;;13.70;84.80;;;;;;5079503;28;20044;-86
2021/01/29 00:16:51;;;;;;;0.35;0.10;;;13.70;84.80;;;;;;5066765;28;20037;-86
2021/01/29 00:19:17;;;;;;;3.00;0.30;;;13.70;84.90;;;;;;5045172;28;20041;-86
2021/01/29 00:21:44;;;;;;;0.00;0.00;;;13.60;84.90;;;;;;5059591;28;20025;-86
2021/01/29 00:24:10;;;;;;;0.00;0.00;;;13.60;85.00;;;;;;5066718;28;20509;-86
2021/01/29 00:26:36;;;;;;;0.45;0.10;;;13.60;85.00;;;;;;5061722;28;20392;-85
2021/01/29 00:29:02;;;;;;;0.00;0.00;;;13.60;85.00;;;;;;5078900;28;20031;-86
2021/01/29 00:31:28;;;;;;;0.00;0.00;;;13.60;85.00;;;;;;5063708;28;20043;-86
2021/01/29 00:33:55;;;;;;;0.00;0.00;;;13.60;85.10;;;;;;5072885;28;20491;-86
2021/01/29 00:36:21;;;;;;;0.20;0.00;;;13.60;85.90;;;;;;5061016;28;20028;-85
2021/01/29 00:38:47;;;;;;;1.55;0.30;;;13.60;85.20;;;;;;5064555;28;20392;-86
2021/01/29 00:41:13;;;;;;;0.00;0.00;;;13.60;85.20;;;;;;5042551;28;20048;-86
2021/01/29 00:43:39;;;;;;;0.00;0.00;;;13.60;85.20;;;;;;5063151;28;20036;-86
2021/01/29 00:46:06;;;;;;;0.00;0.00;;;13.60;85.20;;;;;;5044901;28;20400;-87
2021/01/29 00:48:32;;;;;;;0.00;0.00;;;13.60;85.20;;;;;;5077403;28;20035;-86
2021/01/29 00:50:58;;;;;;;0.00;0.00;;;13.60;85.20;;;;;;5062794;28;20034;-86
2021/01/29 00:53:25;;;;;;;1.88;0.13;;;13.60;85.20;;;;;;5076604;28;20117;-86
2021/01/29 00:55:51;;;;;;;0.00;0.00;;;13.60;85.20;;;;;;5058184;28;20033;-87
2021/01/29 00:58:17;;;;;;;0.00;0.00;;;13.60;85.30;;;;;;5037768;28;20497;-87
2021/01/29 01:00:43;;;;;;;0.05;0.00;;;13.60;85.30;;;;;;5063554;28;20041;-85
2021/01/29 01:03:09;;;;;;;0.00;0.00;;;13.60;85.30;;;;;;5058183;28;20048;-87
2021/01/29 01:05:35;;;;;;;0.00;0.00;;;13.60;85.30;;;;;;5059109;28;20025;-86
2021/01/29 01:08:01;;;;;;;5.63;0.10;;;13.60;85.30;;;;;;5071631;28;20506;-86
2021/01/29 01:10:27;;;;;;;9.43;0.00;;;13.60;85.30;;;;;;5065429;28;20033;-87
2021/01/29 01:12:53;;;;;;;5.47;0.20;;;13.60;85.40;;;;;;5055570;28;20048;-86
2021/01/29 01:15:24;;;;;;;0.00;0.00;;;13.60;85.40;;;;;;5054022;28;20039;-87
2021/01/29 01:17:51;;;;;;;0.10;0.08;;;13.60;85.40;;;;;;5068534;28;20036;-86
2021/01/29 01:20:18;;;;;;;0.13;0.00;;;13.60;85.40;;;;;;5056380;28;20043;-86
2021/01/29 01:22:45;;;;;;;0.30;0.20;;;13.60;85.40;;;;;;5080728;28;20032;-85
2021/01/29 01:25:11;;;;;;;0.10;0.03;;;13.60;85.40;;;;;;5063795;28;20041;-85
2021/01/29 01:27:38;;;;;;;0.10;0.00;;;13.50;85.30;;;;;;5061726;28;20032;-86
2021/01/29 01:30:06;;;;;;;0.43;0.00;;;13.50;85.40;;;;;;5066727;28;20084;-86
2021/01/29 01:32:32;;;;;;;0.00;0.00;;;13.50;85.40;;;;;;5077457;28;20503;-86
2021/01/29 01:34:58;;;;;;;0.10;0.10;;;13.50;85.30;;;;;;5066425;28;20029;-87
2021/01/29 01:37:24;;;;;;;0.00;0.00;;;13.50;85.40;;;;;;5060467;28;20033;-86
2021/01/29 01:39:50;;;;;;;0.40;0.08;;;13.50;85.30;;;;;;5058261;28;20036;-85
2021/01/29 01:42:16;;;;;;;0.40;0.08;;;13.50;85.40;;;;;;5065181;28;20032;-86
2021/01/29 01:44:43;;;;;;;5.72;0.20;;;13.40;86.10;;;;;;5040445;28;20037;-85
2021/01/29 01:47:32;;;;;;;3.33;0.43;;;13.40;85.40;;;;;;5038440;28;20029;-86
2021/01/29 01:50:22;;;;;;;0.73;0.65;;;13.40;85.40;;;;;;5056858;28;20027;-86
2021/01/29 01:52:48;;;;;;;1.50;0.30;;;13.40;85.40;;;;;;5060067;28;20052;-86
2021/01/29 01:55:25;;;;;;;0.00;0.00;;;13.40;84.80;;;;;;5076089;28;20394;-85
2021/01/29 01:57:52;;;;;;;7.70;0.17;;;13.40;85.30;;;;;;5074775;28;20024;-86
2021/01/29 02:00:21;;;;;;;1.75;0.10;;;13.40;85.30;;;;;;5040159;28;20052;-86
2021/01/29 02:02:49;;;;;;;0.60;0.22;;;13.40;85.40;;;;;;5059068;28;20120;-85
2021/01/29 02:05:18;;;;;;;0.00;0.00;;;13.30;85.30;;;;;;5056146;28;20037;-86
2021/01/29 02:07:56;;;;;;;0.63;0.40;;;13.30;85.30;;;;;;5063455;28;20020;-85
2021/01/29 02:10:23;;;;;;;2.13;0.20;;;13.30;85.40;;;;;;5058615;28;20040;-85
2021/01/29 02:12:49;;;;;;;0.80;0.00;;;13.30;85.40;;;;;;5058076;28;20033;-85
2021/01/29 02:15:19;;;;;;;12.90;0.65;;;13.30;85.40;;;;;;5085656;28;20476;-86
2021/01/29 02:18:11;;;;;;;0.20;0.10;;;13.30;85.40;;;;;;5064354;28;20457;-86
2021/01/29 02:20:59;;;;;;;1.92;0.43;;;13.20;85.40;;;;;;5080221;28;20040;-85
2021/01/29 02:23:56;;;;;;;0.00;0.00;;;13.20;85.40;;;;;;5062024;28;20047;-85
2021/01/29 02:26:44;;;;;;;11.13;0.40;;;13.20;85.30;;;;;;5065036;28;20040;-85
2021/01/29 02:29:34;;;;;;;0.45;0.45;;;13.20;85.30;;;;;;5058614;28;20512;-86
2021/01/29 02:32:23;;;;;;;2.28;0.50;;;13.20;85.20;;;;;;5050876;28;20508;-86
2021/01/29 02:35:21;;;;;;;2.55;0.20;;;13.20;85.20;;;;;;5057998;28;20045;-86
2021/01/29 02:38:24;;;;;;;16.45;0.30;;;13.10;85.20;;;;;;5007577;28;20046;-86
2021/01/29 02:41:06;;;;;;;5.05;0.22;;;13.10;85.20;;;;;;5004662;28;20405;-84
2021/01/29 02:43:38;;;;;;;1.38;0.10;;;13.10;85.20;;;;;;5011051;28;20081;-86
2021/01/29 02:46:26;;;;;;;5.10;0.50;;;13.00;85.20;;;;;;5001261;28;20030;-87
2021/01/29 02:48:52;;;;;;;2.15;0.35;;;13.00;85.20;;;;;;4983883;28;20389;-86
2021/01/29 02:51:27;;;;;;;3.10;0.43;;;12.90;86.00;;;;;;5006006;28;20030;-86
2021/01/29 02:53:56;;;;;;;0.88;0.15;;;12.90;85.20;;;;;;5000510;28;20054;-86
2021/01/29 02:56:42;;;;;;;1.75;0.45;;;12.90;85.30;;;;;;5005158;28;20033;-86
2021/01/29 02:59:16;;;;;;;1.13;0.25;;;12.90;85.30;;;;;;4988821;28;20045;-86
2021/01/29 03:01:48;;;;;;;0.10;0.00;;;12.90;85.30;;;;;;4994904;28;20042;-85
2021/01/29 03:04:23;;;;;;;3.65;0.77;;;12.90;85.30;;;;;;5004262;28;20102;-86
2021/01/29 03:07:01;;;;;;;8.88;0.50;;;12.90;85.30;;;;;;4982946;28;20093;-86
2021/01/29 03:09:35;;;;;;;0.00;0.00;;;12.80;85.20;;;;;;4986534;28;20041;-85
2021/01/29 03:12:31;;;;;;;5.45;1.08;;;12.80;85.20;;;;;;4990053;28;20054;-86
2021/01/29 03:15:08;;;;;;;3.17;0.65;;;12.80;85.20;;;;;;5062910;28;20048;-86
2021/01/29 03:17:44;;;;;;;2.35;0.45;;;12.80;85.20;;;;;;5051946;28;20029;-85
2021/01/29 03:20:33;;;;;;;0.08;0.00;;;12.80;85.20;;;;;;5063055;28;20040;-83
2021/01/29 03:23:08;;;;;;;0.82;0.13;;;12.80;85.10;;;;;;5068548;28;20039;-86
2021/01/29 03:25:37;;;;;;;0.70;0.10;;;12.80;85.10;;;;;;5053380;28;20044;-84
2021/01/29 03:28:12;;;;;;;0.00;0.00;;;12.70;85.00;;;;;;5049403;28;20033;-85
2021/01/29 03:30:39;;;;;;;1.65;0.22;;;12.80;85.10;;;;;;5069075;28;20037;-86
2021/01/29 03:33:06;;;;;;;11.65;1.55;;;12.70;85.10;;;;;;5075396;28;20047;-86
2021/01/29 03:35:41;;;;;;;6.03;0.55;;;12.70;85.00;;;;;;5033539;28;20528;-83
2021/01/29 03:38:17;;;;;;;5.63;0.93;;;12.80;85.10;;;;;;5047301;28;20392;-85
2021/01/29 03:40:44;;;;;;;0.38;0.08;;;12.70;85.00;;;;;;5073557;28;20056;-84
2021/01/29 03:43:30;;;;;;;5.78;0.82;;;12.80;85.10;;;;;;5079064;28;20048;-84
2021/01/29 03:46:13;;;;;;;0.05;0.00;;;12.70;85.00;;;;;;5079021;28;20029;-86
2021/01/29 03:48:48;;;;;;;0.77;0.10;;;12.70;85.00;;;;;;5083333;28;20036;-86
2021/01/29 03:51:28;;;;;;;0.68;0.32;;;12.70;84.90;;;;;;5040209;28;20040;-86
2021/01/29 03:54:03;;;;;;;1.75;0.30;;;12.70;84.90;;;;;;5034661;28;20098;-86
2021/01/29 03:56:33;;;;;;;17.02;0.38;;;12.70;84.90;;;;;;5054196;28;20021;-84
2021/01/29 03:59:23;;;;;;;3.00;0.47;;;12.70;84.80;;;;;;5056101;28;20551;-86
2021/01/29 04:01:52;;;;;;;4.05;0.20;;;12.70;84.80;;;;;;5073566;28;20112;-86
2021/01/29 04:04:27;;;;;;;1.95;0.40;;;12.60;84.80;;;;;;5062285;28;20045;-86
2021/01/29 04:06:58;;;;;;;8.25;0.60;;;12.60;84.80;;;;;;5074796;28;20025;-86
2021/01/29 04:09:31;;;;;;;;;;;12.60;84.80;;;;;;5080824;28;20677;-85
2021/01/29 04:11:59;;;;;;;10.55;0.50;;;12.60;84.90;;;;;;5042638;28;19909;-86
2021/01/29 04:14:36;;;;;;;0.47;0.20;;;12.50;84.70;;;;;;5065339;28;20024;-85
2021/01/29 04:17:05;;;;;;;5.40;0.25;;;12.50;84.70;;;;;;5017835;28;20052;-87
2021/01/29 04:19:31;;;;;;;0.88;0.40;;;12.50;84.80;;;;;;5047168;28;20491;-86
2021/01/29 04:22:04;;;;;;;3.88;0.60;;;12.40;84.70;;;;;;5047812;28;20045;-85
2021/01/29 04:24:40;;;;;;;0.28;0.20;;;12.40;84.80;;;;;;5075181;28;20045;-86
2021/01/29 04:27:12;;;;;;;0.28;0.17;;;12.40;84.70;;;;;;5074485;28;20499;-85
2021/01/29 04:29:41;;;;;;;10.52;0.20;;;12.40;84.80;;;;;;5062214;28;20052;-85
2021/01/29 04:32:10;;;;;;;6.40;0.30;;;12.40;84.70;;;;;;5075080;28;20419;-85
2021/01/29 04:34:38;;;;;;;2.35;0.35;;;12.40;84.70;;;;;;5076814;28;20404;-84
2021/01/29 04:37:10;;;;;;;11.77;0.30;;;12.40;84.70;;;;;;5073645;28;20395;-85
2021/01/29 04:39:39;;;;;;;2.33;0.40;;;12.40;84.70;;;;;;5033427;28;20016;-85
2021/01/29 04:42:28;;;;;;;0.32;0.15;;;12.40;84.70;;;;;;5051323;28;20043;-86
2021/01/29 04:45:25;;;;;;;2.75;0.30;;;12.30;84.70;;;;;;5059450;28;20028;-86
2021/01/29 04:48:03;;;;;;;3.35;0.25;;;12.30;84.70;;;;;;5067867;28;20040;-86
2021/01/29 04:50:45;;;;;;;7.47;0.20;;;12.30;84.70;;;;;;5062196;28;20040;-84
2021/01/29 04:53:19;;;;;;;7.93;0.95;;;12.30;84.60;;;;;;5073291;28;20047;-87
2021/01/29 04:55:54;;;;;;;6.85;0.63;;;12.30;84.60;;;;;;5073296;28;20029;-87
2021/01/29 04:58:29;;;;;;;3.25;0.08;;;12.30;84.60;;;;;;5080131;28;20021;-87
2021/01/29 05:01:37;;;;;;;13.15;0.80;;;12.30;84.60;;;;;;5066511;28;20776;-87
2021/01/29 05:04:37;;;;;;;10.02;0.68;;;12.20;84.60;;;;;;5002734;28;20578;-87
2021/01/29 05:07:03;;;;;;;1.75;0.22;;;12.20;84.50;;;;;;5000995;28;20502;-87
2021/01/29 05:09:56;;;;;;;19.08;1.17;;;12.30;84.50;;;;;;5007989;28;20037;-85
2021/01/29 05:12:50;;;;;;;5.82;0.47;;;12.20;84.50;;;;;;5005800;28;21641;-88
2021/01/29 05:15:54;;;;;;;2.85;0.45;;;12.20;84.50;;;;;;5001998;28;20030;-85
2021/01/29 05:18:57;;;;;;;1.98;0.10;;;12.20;84.50;;;;;;4930786;29;20040;-87
2021/01/29 05:21:41;;;;;;;3.47;0.32;;;12.20;84.50;;;;;;4937118;29;20043;-87
2021/01/29 05:24:20;;;;;;;0.03;0.00;;;12.20;84.40;;;;;;4929425;29;20047;-87
2021/01/29 05:27:13;;;;;;;1.08;0.17;;;12.20;84.40;;;;;;4914053;29;20047;-86
2021/01/29 05:29:47;;;;;;;4.55;0.35;;;12.30;84.40;;;;;;4926930;29;20055;-87
2021/01/29 05:32:39;;;;;;;0.65;0.28;;;12.20;84.20;;;;;;4910571;29;20047;-88
2021/01/29 05:35:20;;;;;;;0.60;0.40;;;12.20;84.20;;;;;;4929964;29;20043;-85
2021/01/29 05:38:01;;;;;;;0.63;0.15;;;12.30;84.30;;;;;;4917081;29;20416;-87
2021/01/29 05:41:04;;;;;;;7.35;0.63;;;12.20;84.20;;;;;;4974310;28;20494;-87
2021/01/29 05:43:43;;;;;;;0.35;0.25;;;12.20;84.20;;;;;;4984614;28;20454;-87
2021/01/29 05:46:40;;;;;;;2.45;0.40;;;12.20;84.20;;;;;;4969916;28;20042;-86
2021/01/29 05:49:34;;;;;;;1.92;0.43;;;12.20;84.20;;;;;;5011818;28;20032;-86
2021/01/29 05:52:43;;;;;;;2.97;0.05;;;12.20;84.20;;;;;;5039667;28;20025;-87
2021/01/29 05:55:24;;;;;;;6.10;0.10;;;12.20;84.10;;;;;;5071645;28;20033;-87
2021/01/29 05:58:11;;;;;;;4.55;0.35;;;12.20;84.10;;;;;;5059678;28;20024;-86
2021/01/29 06:00:55;;;;;;;0.40;0.17;;;12.20;84.10;;;;;;5061198;28;20032;-83
2021/01/29 06:03:49;;;;;;;7.22;0.35;;;12.20;84.10;;;;;;5057102;28;20044;-86
2021/01/29 06:06:33;;;;;;;1.13;0.17;;;12.20;84.10;;;;;;5075117;28;20021;-86
2021/01/29 06:09:30;;;;;;;2.05;0.15;;;12.20;84.10;;;;;;5083154;28;20048;-87
2021/01/29 06:12:33;;;;;;;3.20;0.40;;;12.20;84.20;;;;;;5047658;28;20040;-86
2021/01/29 06:15:22;;;;;;;4.28;0.03;;;12.10;84.20;;;;;;5068939;28;20040;-87
2021/01/29 06:17:55;;;;;;;7.13;1.23;;;12.10;84.10;;;;;;5068918;28;20037;-86
2021/01/29 06:20:52;;;;;;;2.20;0.38;;;12.10;84.20;;;;;;5067468;28;20406;-86
2021/01/29 06:23:31;;;;;;;0.90;0.20;;;12.10;84.20;;;;;;5072233;28;20032;-87
2021/01/29 06:26:25;;;;;;;21.27;0.70;;;12.10;84.20;;;;;;5029268;28;20036;-89
2021/01/29 06:29:10;;;;;;;1.73;0.38;;;12.10;84.20;;;;;;5076311;28;20028;-86
2021/01/29 06:31:42;;;;;;;0.77;0.13;;;12.10;84.20;;;;;;5058610;28;20035;-84
2021/01/29 06:34:33;;;;;;;7.00;0.10;;;12.10;84.10;;;;;;5083079;28;20025;-86
2021/01/29 06:37:16;;;;;;;15.75;0.80;;;12.10;84.10;;;;;;5060498;28;20032;-90
2021/01/29 06:40:09;;;;;;;0.57;0.10;;;12.10;84.00;;;;;;5074630;28;20065;-89
2021/01/29 06:42:54;;;;;;;2.40;0.38;;;12.20;84.10;;;;;;5058133;28;20040;-90
2021/01/29 06:45:36;;;;;;;16.05;1.13;;;12.20;84.00;;;;;;5064923;28;20040;-90
2021/01/29 06:48:05;;;;;;;2.35;0.22;;;12.20;84.00;;;;;;5053155;28;20036;-88
2021/01/29 06:50:37;;;;;;;1.42;0.55;;;12.20;84.00;;;;;;5057430;28;20075;-85
2021/01/29 06:53:18;;;;;;;1.30;0.25;;;12.20;83.90;;;;;;5056536;28;20032;-86
2021/01/29 06:56:03;;;;;;;;;;;12.20;83.80;;;;;;5059286;28;20031;-86
2021/01/29 06:58:57;;;;;;;3.20;0.57;;;12.20;83.80;;;;;;5078424;28;20253;-88
2021/01/29 07:01:35;;;;;;;3.97;0.88;;;12.20;83.80;;;;;;5078505;28;20029;-87
2021/01/29 07:04:16;;;;;;;4.82;0.57;;;12.20;83.70;;;;;;5061350;28;20408;-88
2021/01/29 07:06:48;;;;;;;2.78;0.57;;;12.20;83.80;;;;;;5071504;28;20047;-85
2021/01/29 07:09:53;;;;;;;0.70;0.28;;;12.10;83.80;;;;;;5076858;28;20044;-86
2021/01/29 07:12:43;;;;;;;0.35;0.20;;;12.10;83.80;;;;;;5056863;28;20021;-86
2021/01/29 07:15:31;;;;;;;0.15;0.00;;;12.10;83.80;;;;;;5039872;28;20025;-86
2021/01/29 07:18:03;;;;;;;1.73;0.38;;;12.10;84.00;;;;;;5081323;28;20047;-85
2021/01/29 07:20:58;;;;;;;14.27;0.70;;;12.10;83.90;;;;;;5071530;28;20051;-86
2021/01/29 07:23:51;;;;;;;4.85;0.35;;;12.10;84.00;;;;;;5053492;28;20040;-86
2021/01/29 07:26:35;;;;;;;0.13;0.05;;;12.10;84.00;;;;;;5082794;28;20028;-86
2021/01/29 07:29:19;;;;;;;0.32;0.03;;;12.10;84.00;;;;;;5052877;28;20032;-85
2021/01/29 07:32:14;;;;;;;0.30;0.20;;;12.10;84.00;;;;;;5068781;28;20040;-85
2021/01/29 07:35:05;;;;;;;1.70;0.47;;;12.10;84.00;;;;;;5065020;28;20391;-87
2021/01/29 07:38:09;;;;;;;6.72;0.20;;;12.10;84.10;;;;;;5064224;28;20037;-84
2021/01/29 07:40:59;;;;;;;2.42;0.47;;;12.00;84.00;;;;;;5070189;28;20041;-85
2021/01/29 07:43:52;;;;;;;14.13;1.02;;;12.00;83.90;;;;;;5075451;28;20044;-85
2021/01/29 07:46:21;;;;;;;3.60;0.10;;;12.10;84.00;;;;;;5062373;28;20040;-86
2021/01/29 07:48:59;;;;;;;1.90;0.17;;;12.10;83.90;;;;;;5051830;28;20032;-83
2021/01/29 07:51:34;;;;;;;12.23;0.95;;;12.10;83.90;;;;;;5035800;28;20032;-84
2021/01/29 07:54:37;;;;;;;5.82;0.10;;;12.10;83.90;;;;;;5072002;28;20704;-87
2021/01/29 07:57:29;;;;;;;2.65;0.43;;;12.10;83.80;;;;;;5068151;28;20036;-85
2021/01/29 08:00:06;;;;;;;0.30;0.13;;;12.10;83.80;;;;;;5077926;28;20036;-86
2021/01/29 08:02:55;;;;;;;1.50;0.20;;;12.10;83.70;;;;;;5061585;28;20052;-84
2021/01/29 08:05:42;;;;;;;2.70;0.90;;;12.10;83.70;;;;;;4995756;28;20050;-83
2021/01/29 08:08:22;;;;;;;9.65;0.13;;;12.20;83.80;;;;;;4972275;28;20533;-84
2021/01/29 08:10:53;;;;;;;8.77;0.82;;;12.20;83.70;;;;;;4991041;28;20181;-85
2021/01/29 08:13:59;;;;;;;5.80;0.63;;;12.20;83.70;;;;;;4992627;28;20393;-84
2021/01/29 08:16:49;;;;;;;1.77;0.10;;;12.20;83.70;;;;;;5009176;28;20042;-81
2021/01/29 08:19:41;;;;;;;8.13;0.60;;;12.20;83.60;;;;;;5030841;28;20480;-80
2021/01/29 08:22:28;;;;;;;2.55;0.15;;;12.20;83.70;;;;;;5014268;28;20350;-82
2021/01/29 08:25:30;;;;;;;3.38;0.63;;;12.30;83.60;;;;;;5035470;28;20052;-80
2021/01/29 08:27:59;;;;;;;0.00;0.00;;;12.30;83.50;;;;;;5040059;28;20480;-80
2021/01/29 08:30:46;;;;;;;13.25;1.30;;;12.30;83.40;;;;;;5044114;28;20040;-81
2021/01/29 08:33:36;;;;;;;0.00;0.00;;;12.30;83.50;;;;;;5031310;28;20036;-81
2021/01/29 08:36:30;;;;;;;2.33;0.15;;;12.40;83.50;;;;;;5030816;28;20045;-81
2021/01/29 08:39:01;;;;;;;3.28;0.50;;;12.40;83.40;;;;;;4998958;28;20033;-81
2021/01/29 08:41:56;;;;;;;5.68;0.35;;;12.40;83.40;;;;;;5042716;28;20053;-81
2021/01/29 08:44:34;;;;;;;7.65;0.50;;;12.40;83.40;;;;;;5056277;28;20477;-80
2021/01/29 08:47:15;;;;;;;0.20;0.10;;;12.50;83.40;;;;;;5056496;28;20036;-81
2021/01/29 08:49:41;;;;;;;3.05;0.25;;;12.50;83.30;;;;;;5060199;28;20090;-82
2021/01/29 08:52:31;;;;;;;2.83;0.25;;;12.60;83.20;;;;;;5058491;28;20469;-84
2021/01/29 08:55:22;;;;;;;1.10;0.50;;;12.60;83.00;;;;;;5061732;28;20033;-82
2021/01/29 08:57:52;;;;;;;2.70;0.40;;;12.70;82.90;;;;;;5064131;28;20043;-82
2021/01/29 09:00:24;;;;;;;1.30;0.37;;;12.70;82.90;;;;;;5052320;28;20033;-80
2021/01/29 09:03:07;;;;;;;1.48;0.40;;;12.80;82.80;;;;;;5068552;28;20755;-81
2021/01/29 09:05:58;;;;;;;5.28;0.73;;;12.80;82.70;;;;;;5520177;22;20330;-79
2021/01/29 09:08:24;;;;;;;0.45;0.32;;;12.80;82.70;;;;;;4991526;28;20044;-80
2021/01/29 09:11:29;;;;;;;3.00;0.50;;;12.90;82.60;;;;;;4992130;28;20035;-80
2021/01/29 09:13:57;;;;;;;3.80;0.73;;;12.90;82.50;;;;;;4929820;29;20054;-80
2021/01/29 09:16:34;;;;;;;0.68;0.25;;;13.00;82.40;;;;;;4902424;29;20062;-80
2021/01/29 09:19:11;;;;;;;2.10;0.45;;;13.00;82.30;;;;;;4916195;29;20040;-80
2021/01/29 09:22:04;;;;;;;1.20;0.52;;;13.20;82.20;;;;;;4928336;29;20043;-80
2021/01/29 09:24:37;;;;;;;6.60;0.43;;;13.40;81.70;;;;;;4936215;29;20058;-80
2021/01/29 09:27:06;;;;;;;0.00;0.00;;;13.90;80.80;;;;;;4915737;29;20036;-80
2021/01/29 09:29:38;;;;;;;0.43;0.30;;;14.20;80.00;;;;;;4943955;29;20043;-80
2021/01/29 09:32:06;;;;;;;3.05;0.25;;;14.20;79.40;;;;;;4928733;29;20391;-80
2021/01/29 09:34:42;;;;;;;0.90;0.30;;;14.10;79.60;;;;;;4938767;29;20035;-80
2021/01/29 09:37:11;;;;;;;0.90;0.30;;;14.10;80.10;;;;;;4913138;29;20143;-80
2021/01/29 09:40:01;;;;;;;3.50;0.38;;;14.10;79.90;;;;;;4928257;29;20038;-80
2021/01/29 09:42:39;;;;;;;11.02;0.52;;;14.30;79.70;;;;;;4920530;29;20488;-80
2021/01/29 09:45:08;;;;;;;0.32;0.00;;;14.40;79.40;;;;;;4931090;28;20043;-80
2021/01/29 09:47:39;;;;;;;0.25;0.20;;;14.40;79.30;;;;;;4943175;28;20033;-80
2021/01/29 09:50:08;;;;;;;0.70;0.20;;;14.20;79.50;;;;;;4996374;28;20038;-81
2021/01/29 09:52:59;;;;;;;1.42;0.40;;;14.10;79.90;;;;;;5020796;28;20045;-80
2021/01/29 09:55:46;;;;;;;1.85;0.38;;;13.90;80.40;;;;;;5014833;28;20041;-80
2021/01/29 09:58:34;;;;;;;8.65;0.60;;;13.80;80.60;;;;;;5013035;28;20026;-80
2021/01/29 10:01:14;;;;;;;9.57;0.30;;;13.80;80.80;;;;;;5026088;28;20040;-80
2021/01/29 10:04:09;;;;;;;2.60;0.30;;;13.70;80.90;;;;;;5013869;28;20094;-80
2021/01/29 10:06:40;;;;;;;19.65;0.80;;;13.70;81.10;;;;;;5021410;28;20041;-80
2021/01/29 10:09:13;;;;;;;1.80;0.38;;;13.80;81.00;;;;;;5032406;28;20029;-80
2021/01/29 10:12:12;;;;;;;1.17;0.40;;;13.90;80.80;;;;;;4998444;28;20044;-80
2021/01/29 10:14:44;;;;;;;0.63;0.30;;;14.10;80.60;;;;;;5005522;28;20029;-80
2021/01/29 10:17:33;;;;;;;9.50;0.55;;;14.30;80.10;;;;;;5014821;28;20052;-80
2021/01/29 10:20:03;;;;;;;4.85;1.50;;;14.40;79.80;;;;;;5015708;28;20029;-80
2021/01/29 10:22:34;;;;;;;1.45;0.32;;;14.40;79.60;;;;;;5010803;28;20406;-80
2021/01/29 10:25:16;;;;;;;8.27;1.00;;;14.50;79.60;;;;;;5013325;28;20397;-80
2021/01/29 10:28:00;;;;;;;2.13;0.50;;;14.50;79.60;;;;;;5032575;28;20040;-80
2021/01/29 10:30:45;;;;;;;7.82;0.10;;;14.50;79.00;;;;;;5015424;28;20078;-80
2021/01/29 10:33:27;;;;;;;0.85;0.10;;;14.60;79.60;;;;;;5033066;28;20021;-80
2021/01/29 10:36:05;;;;;;;1.15;0.40;;;14.60;79.30;;;;;;5011704;28;20053;-80
2021/01/29 10:38:42;;;;;;;4.45;0.45;;;14.70;79.30;;;;;;5009489;28;20025;-80
2021/01/29 10:41:25;;;;;;;7.60;0.98;;;14.70;79.20;;;;;;5031873;28;20041;-81
2021/01/29 10:44:13;;;;;;;15.00;1.45;;;14.80;79.10;;;;;;5016073;28;20052;-80
2021/01/29 10:47:05;;;;;;;6.50;0.00;;;14.80;78.90;;;;;;5047520;28;20508;-81
2021/01/29 10:49:57;;;;;;;12.57;0.25;;;14.90;78.80;;;;;;5016856;28;20387;-80
2021/01/29 10:52:48;;;;;;;5.32;0.75;;;15.10;78.60;;;;;;5032485;28;20473;-80
2021/01/29 10:55:27;;;;;;;0.00;0.00;;;15.20;78.40;;;;;;5015221;28;20037;-81
2021/01/29 10:57:55;;;;;;;0.28;0.25;;;15.20;78.10;;;;;;5032818;28;20040;-81
2021/01/29 11:00:29;;;;;;;1.58;0.40;;;15.20;78.00;;;;;;5032818;28;20037;-80
2021/01/29 11:03:11;;;;;;;0.45;0.13;;;15.20;78.20;;;;;;5030706;28;20017;-80
2021/01/29 11:05:40;;;;;;;2.28;0.95;;;15.20;78.20;;;;;;4995328;28;20071;-81
2021/01/29 11:08:24;;;;;;;2.10;0.40;;;15.30;78.00;;;;;;5015023;28;20034;-81
2021/01/29 11:10:53;;;;;;;2.35;0.10;;;15.30;77.80;;;;;;5029778;28;20056;-81
2021/01/29 11:13:26;;;;;;;4.82;0.75;;;15.40;77.50;;;;;;5031626;28;20473;-81
2021/01/29 11:16:04;;;;;;;3.45;0.50;;;15.40;77.30;;;;;;5006727;28;20044;-81
2021/01/29 11:18:35;;;;;;;1.17;0.17;;;15.40;77.30;;;;;;5015251;28;20022;-81
2021/01/29 11:21:04;;;;;;;0.38;0.05;;;15.40;77.50;;;;;;5024613;28;20056;-81
2021/01/29 11:23:31;;;;;;;0.00;0.00;;;15.40;77.50;;;;;;5025242;28;20029;-81
2021/01/29 11:25:58;;;;;;;3.13;0.50;;;15.40;77.30;;;;;;5031362;28;20037;-81
2021/01/29 11:28:33;;;;;;;1.25;0.45;;;15.50;77.30;;;;;;5013572;28;20038;-81
2021/01/29 11:31:15;;;;;;;5.50;0.43;;;15.70;77.00;;;;;;5020104;28;20030;-81
2021/01/29 11:33:42;;;;;;;8.20;0.52;;;15.90;76.40;;;;;;5044974;28;20033;-81
2021/01/29 11:36:26;;;;;;;1.48;0.17;;;16.00;76.00;;;;;;5025667;28;20042;-81
2021/01/29 11:39:03;;;;;;;0.22;0.10;;;16.00;75.70;;;;;;5012706;28;20033;-81
2021/01/29 11:41:41;;;;;;;1.38;0.08;;;16.00;75.50;;;;;;5024519;28;20053;-80
2021/01/29 11:44:24;;;;;;;2.42;0.40;;;15.90;75.60;;;;;;5025302;28;20022;-81
2021/01/29 11:47:00;;;;;;;0.50;0.38;;;15.90;75.60;;;;;;5039203;28;20046;-81
2021/01/29 11:49:34;;;;;;;7.40;0.80;;;15.90;75.60;;;;;;5027250;28;20026;-81
2021/01/29 11:52:20;;;;;;;8.18;0.52;;;15.80;75.50;;;;;;4985876;28;20042;-80
2021/01/29 11:55:09;;;;;;;0.68;0.25;;;15.80;75.50;;;;;;5010972;28;20485;-81
2021/01/29 11:57:46;;;;;;;0.05;0.00;;;15.80;75.40;;;;;;5026797;28;20030;-81
2021/01/29 12:00:12;;;;;;;1.98;0.30;;;15.90;75.40;;;;;;5008246;28;20044;-81
2021/01/29 12:02:39;;;;;;;0.98;0.35;;;15.90;74.70;;;;;;5009949;28;20045;-81
2021/01/29 12:05:14;;;;;;;8.00;1.08;;;15.90;74.80;;;;;;5027416;28;20066;-81
2021/01/29 12:07:54;;;;;;;0.68;0.20;;;15.80;74.90;;;;;;5009206;28;20045;-81
2021/01/29 12:10:29;;;;;;;19.17;0.70;;;15.70;75.10;;;;;;5026097;28;20045;-81
2021/01/29 12:13:02;;;;;;;5.72;0.45;;;15.70;75.00;;;;;;4999864;28;20030;-81
2021/01/29 12:15:52;;;;;;;8.07;0.45;;;15.60;75.00;;;;;;5009804;28;20030;-81
2021/01/29 12:18:19;;;;;;;6.97;0.82;;;15.50;75.10;;;;;;5009026;28;20045;-81
2021/01/29 12:20:45;;;;;;;0.90;0.15;;;15.40;75.20;;;;;;4992771;28;20041;-81
2021/01/29 12:23:30;;;;;;;4.72;0.32;;;15.30;75.40;;;;;;5008779;28;20478;-81
2021/01/29 12:26:02;;;;;;;1.77;0.28;;;15.20;75.40;;;;;;5038179;28;20041;-80
2021/01/29 12:28:40;;;;;;;2.00;0.35;;;15.20;75.30;;;;;;5011110;28;20037;-81
2021/01/29 12:31:21;;;;;;;2.50;0.60;;;15.30;75.10;;;;;;5007728;28;20041;-80
2021/01/29 12:33:57;;;;;;;0.10;0.10;;;15.40;74.80;;;;;;5009528;28;20026;-82
2021/01/29 12:36:26;;;;;;;6.95;0.45;;;15.50;74.40;;;;;;5014534;28;20038;-80
2021/01/29 12:39:12;;;;;;;0.03;0.00;;;15.50;74.40;;;;;;5004957;28;20037;-80
2021/01/29 12:41:52;;;;;;;4.60;0.05;;;15.40;74.40;;;;;;5024824;28;20030;-80
2021/01/29 12:44:22;;;;;;;0.22;0.20;;;15.30;74.60;;;;;;5008016;28;20030;-80
2021/01/29 12:47:18;;;;;;;2.47;0.45;;;15.30;74.50;;;;;;5042267;28;20037;-80
2021/01/29 12:50:19;;;;;;;7.57;0.40;;;15.30;74.50;;;;;;5028401;28;20026;-80
2021/01/29 12:52:53;;;;;;;0.88;0.20;;;15.30;74.50;;;;;;5008766;28;20041;-80
2021/01/29 12:55:31;;;;;;;8.80;0.47;;;15.40;74.40;;;;;;4992210;28;20037;-80
2021/01/29 12:58:09;;;;;;;0.50;0.10;;;15.50;74.10;;;;;;5011476;28;20393;-80
2021/01/29 13:00:39;;;;;;;1.00;0.22;;;15.60;73.90;;;;;;5012405;28;20041;-80
2021/01/29 13:03:11;;;;;;;3.53;0.30;;;15.70;73.60;;;;;;5012646;28;20041;-80
2021/01/29 13:06:15;;;;;;;4.85;0.38;;;15.70;73.40;;;;;;5014738;28;20421;-80
2021/01/29 13:09:04;;;;;;;0.47;0.10;;;15.60;73.40;;;;;;4973904;28;20158;-80
2021/01/29 13:11:42;;;;;;;3.40;0.03;;;15.70;73.40;;;;;;4972039;28;20038;-80
2021/01/29 13:14:23;;;;;;;2.10;0.03;;;15.70;73.30;;;;;;4975247;28;20411;-80
2021/01/29 13:17:11;;;;;;;4.43;0.40;;;15.70;73.30;;;;;;4958486;28;20045;-80
2021/01/29 13:19:39;;;;;;;0.03;0.00;;;15.70;73.20;;;;;;4961633;28;20486;-80
2021/01/29 13:22:17;;;;;;;3.15;0.70;;;15.70;73.30;;;;;;4956236;28;20050;-80
2021/01/29 13:24:44;;;;;;;0.88;0.05;;;15.60;73.20;;;;;;4976627;28;20031;-80
2021/01/29 13:27:12;;;;;;;1.55;0.55;;;15.60;73.20;;;;;;4990320;28;20034;-80
2021/01/29 13:29:38;;;;;;;2.28;0.65;;;15.60;73.20;;;;;;4974193;28;20027;-80
2021/01/29 13:32:27;;;;;;;0.50;0.08;;;15.60;73.10;;;;;;4988220;28;20412;-80
2021/01/29 13:34:54;;;;;;;5.47;0.55;;;15.50;72.90;;;;;;4975212;28;20050;-80
2021/01/29 13:37:28;;;;;;;1.88;0.38;;;15.50;72.90;;;;;;4973970;28;20030;-80
2021/01/29 13:40:12;;;;;;;5.85;0.25;;;15.50;72.90;;;;;;4975110;28;20041;-80
2021/01/29 13:42:40;;;;;;;0.08;0.00;;;15.50;72.80;;;;;;4989373;28;20030;-80
2021/01/29 13:45:12;;;;;;;2.83;0.47;;;15.50;72.70;;;;;;4989429;28;20426;-80